Time;durP1;ratioP1;P1;durP2;ratioP2;P2;SDS_P1;SDS_P2;PMS_P1;PMS_P2;Temp;Humidity;BMP_temperature;BMP_pressure;BME280_temperature;BME280_humidity;BME280_pressure;Samples;Min_cycle;Max_cycle;Signal;HPM_P1;HPM_P2
2023/10/31 00:00:21;;;;;;;16.50;8.10;;;;;;;12.85;100.00;100886.44;108613;1256;72631;-52
2023/10/31 00:02:48;;;;;;;14.80;7.90;;;;;;;12.84;100.00;100879.09;108578;1256;65648;-51
2023/10/31 00:05:16;;;;;;;10.60;6.50;;;;;;;12.83;100.00;100874.81;108673;1257;72748;-53
2023/10/31 00:07:46;;;;;;;17.40;7.90;;;;;;;12.81;100.00;100870.39;108688;1257;59748;-51
2023/10/31 00:10:13;;;;;;;14.50;8.90;;;;;;;12.78;100.00;100862.39;108838;1255;58738;-50
2023/10/31 00:12:41;;;;;;;21.30;8.40;;;;;;;12.73;100.00;100854.15;108707;1256;73101;-51
2023/10/31 00:15:08;;;;;;;16.70;8.30;;;;;;;12.69;100.00;100849.62;108637;1256;67018;-52
2023/10/31 00:17:35;;;;;;;13.10;7.40;;;;;;;12.64;100.00;100840.64;108692;1255;72900;-52
2023/10/31 00:20:05;;;;;;;15.00;7.60;;;;;;;12.60;100.00;100836.28;107894;1258;60563;-50
2023/10/31 00:22:32;;;;;;;13.70;7.60;;;;;;;12.57;100.00;100837.70;108634;1256;58826;-51
2023/10/31 00:24:59;;;;;;;14.80;7.90;;;;;;;12.54;100.00;100836.00;104606;1262;74438;-51
2023/10/31 00:27:27;;;;;;;10.90;7.10;;;;;;;12.50;100.00;100830.91;104488;1256;67695;-50
2023/10/31 00:29:54;;;;;;;21.40;10.20;;;;;;;12.48;100.00;100826.69;104464;1260;72722;-51
2023/10/31 00:32:21;;;;;;;18.50;11.20;;;;;;;12.45;100.00;100822.48;104426;1263;60657;-51
2023/10/31 00:34:49;;;;;;;13.10;9.50;;;;;;;12.44;100.00;100818.38;104420;1256;61282;-50
2023/10/31 00:37:16;;;;;;;16.80;10.60;;;;;;;12.43;100.00;100813.20;104612;1259;73935;-51
2023/10/31 00:39:44;;;;;;;15.60;10.00;;;;;;;12.42;100.00;100802.98;104318;1256;67173;-51
2023/10/31 00:42:11;;;;;;;17.70;9.50;;;;;;;12.42;100.00;100797.91;104477;1261;72755;-51
2023/10/31 00:44:38;;;;;;;22.70;9.50;;;;;;;12.42;100.00;100793.79;104471;1261;60634;-50
2023/10/31 00:47:06;;;;;;;19.70;9.80;;;;;;;12.41;100.00;100790.78;104642;1261;61636;-50
2023/10/31 00:49:33;;;;;;;18.20;9.50;;;;;;;12.40;100.00;100789.58;104397;1258;73802;-50
2023/10/31 00:52:01;;;;;;;14.40;8.10;;;;;;;12.37;100.00;100781.56;104508;1257;66079;-48
2023/10/31 00:54:28;;;;;;;20.00;10.00;;;;;;;12.34;100.00;100780.61;104648;1258;71573;-51
2023/10/31 00:56:55;;;;;;;17.20;8.80;;;;;;;12.31;100.00;100788.48;104409;1261;60653;-50
2023/10/31 00:59:23;;;;;;;14.50;9.20;;;;;;;12.27;100.00;100794.73;104601;1257;60432;-49
2023/10/31 01:01:51;;;;;;;12.90;7.20;;;;;;;12.23;100.00;100787.73;104477;1256;72765;-51
2023/10/31 01:04:18;;;;;;;23.10;9.70;;;;;;;12.19;100.00;100784.98;104259;1261;69859;-52
2023/10/31 01:06:46;;;;;;;17.90;7.90;;;;;;;12.16;100.00;100781.85;104647;1262;73160;-50
2023/10/31 01:09:13;;;;;;;13.20;7.00;;;;;;;12.13;100.00;100789.16;104686;1256;61676;-51
2023/10/31 01:11:40;;;;;;;16.00;7.40;;;;;;;12.12;100.00;100787.77;104651;1260;60509;-50
2023/10/31 01:14:08;;;;;;;14.60;7.20;;;;;;;12.11;100.00;100784.05;104487;1257;72650;-50
2023/10/31 01:16:35;;;;;;;14.40;7.60;;;;;;;12.09;100.00;100778.34;104584;1261;65633;-51
2023/10/31 01:19:03;;;;;;;17.20;8.60;;;;;;;12.10;100.00;100782.82;104562;1262;71424;-50
2023/10/31 01:21:30;;;;;;;16.60;8.10;;;;;;;12.10;100.00;100788.01;104555;1259;60566;-49
2023/10/31 01:23:58;;;;;;;25.80;9.10;;;;;;;12.10;100.00;100784.07;104578;1256;60547;-50
2023/10/31 01:26:26;;;;;;;15.60;8.60;;;;;;;12.09;100.00;100777.43;106120;1261;74514;-50
2023/10/31 01:28:53;;;;;;;21.00;9.70;;;;;;;12.09;100.00;100779.23;104302;1257;67063;-51
2023/10/31 01:31:21;;;;;;;22.00;10.70;;;;;;;12.08;100.00;100779.98;104307;1261;73018;-50
2023/10/31 01:33:48;;;;;;;16.50;8.10;;;;;;;12.07;100.00;100774.66;104529;1256;60465;-50
2023/10/31 01:36:18;;;;;;;16.60;8.80;;;;;;;12.06;100.00;100772.55;104931;1259;60541;-50
2023/10/31 01:41:23;;;;;;;15.70;8.00;;;;;;;12.03;100.00;100892.63;101740;1293;600352;-49
2023/10/31 01:43:50;;;;;;;17.10;7.50;;;;;;;12.00;100.00;100889.87;103821;1266;60647;-51
2023/10/31 01:46:17;;;;;;;15.50;8.20;;;;;;;11.99;100.00;100868.48;103828;1266;60093;-50
2023/10/31 01:48:45;;;;;;;17.10;8.40;;;;;;;11.99;100.00;100850.52;103883;1266;72816;-50
2023/10/31 01:51:13;;;;;;;17.90;8.70;;;;;;;11.99;100.00;100843.53;106694;1266;66767;-50
2023/10/31 01:53:40;;;;;;;16.20;8.60;;;;;;;11.98;100.00;100828.98;103819;1266;73267;-51
2023/10/31 01:56:08;;;;;;;19.90;8.70;;;;;;;11.98;100.00;100815.50;103752;1264;199032;-50
2023/10/31 01:58:36;;;;;;;17.80;8.10;;;;;;;11.97;100.00;100813.53;103913;1268;59215;-50
2023/10/31 02:01:04;;;;;;;13.90;8.30;;;;;;;11.97;100.00;100809.56;103786;1266;71664;-50
2023/10/31 02:03:33;;;;;;;16.80;8.40;;;;;;;11.96;100.00;100805.66;108244;1264;65750;-51
2023/10/31 02:06:00;;;;;;;14.80;8.90;;;;;;;11.93;100.00;100795.33;104878;1259;71535;-51
2023/10/31 02:08:28;;;;;;;13.90;7.70;;;;;;;11.91;100.00;100790.91;104405;1258;59757;-51
2023/10/31 02:10:55;;;;;;;13.10;7.90;;;;;;;11.88;100.00;100794.08;104792;1257;59637;-51
2023/10/31 02:13:22;;;;;;;15.30;7.00;;;;;;;11.85;100.00;100798.70;104464;1262;73154;-51
2023/10/31 02:15:50;;;;;;;13.80;7.10;;;;;;;11.81;100.00;100791.85;104616;1261;65628;-50
2023/10/31 02:18:17;;;;;;;15.40;8.30;;;;;;;11.78;100.00;100784.77;104389;1260;70286;-51
2023/10/31 02:20:45;;;;;;;14.70;8.40;;;;;;;11.75;100.00;100784.64;104449;1265;62639;-50
2023/10/31 02:23:12;;;;;;;18.10;8.60;;;;;;;11.73;100.00;100780.20;104684;1257;59634;-50
2023/10/31 02:25:39;;;;;;;14.00;8.50;;;;;;;11.72;100.00;100773.07;104869;1256;71872;-51
2023/10/31 02:28:07;;;;;;;22.30;8.80;;;;;;;11.71;100.00;100772.75;104347;1256;65970;-50
2023/10/31 02:30:34;;;;;;;19.20;8.20;;;;;;;11.71;100.00;100770.59;104582;1260;71437;-48
2023/10/31 02:33:02;;;;;;;16.80;7.50;;;;;;;11.70;100.00;100763.06;108726;1256;59377;-50
2023/10/31 02:35:30;;;;;;;16.70;8.10;;;;;;;11.70;100.00;100767.57;104993;1256;60016;-50
2023/10/31 02:37:57;;;;;;;17.30;8.90;;;;;;;11.68;100.00;100755.95;104458;1262;73930;-49
2023/10/31 02:40:25;;;;;;;17.70;8.20;;;;;;;11.66;100.00;100749.36;104338;1258;66734;-48
2023/10/31 02:42:52;;;;;;;15.80;8.10;;;;;;;11.64;100.00;100742.98;104465;1257;72768;-51
2023/10/31 02:45:19;;;;;;;15.90;8.00;;;;;;;11.61;100.00;100741.64;104352;1260;59755;-50
2023/10/31 02:47:47;;;;;;;18.20;9.00;;;;;;;11.59;100.00;100740.98;104427;1260;59830;-49
2023/10/31 02:50:14;;;;;;;16.80;8.50;;;;;;;11.56;100.00;100733.95;104254;1258;71823;-50
2023/10/31 02:52:42;;;;;;;14.10;7.20;;;;;;;11.54;100.00;100734.19;108590;1259;67404;-52
2023/10/31 02:55:09;;;;;;;12.70;6.60;;;;;;;11.53;100.00;100727.74;108522;1257;72192;-51
2023/10/31 02:57:36;;;;;;;14.40;7.30;;;;;;;11.53;100.00;100731.17;108641;1257;61727;-51
2023/10/31 03:00:04;;;;;;;15.50;7.30;;;;;;;11.53;100.00;100732.05;108568;1257;62382;-51
2023/10/31 03:02:32;;;;;;;18.70;7.30;;;;;;;11.55;100.00;100730.39;108636;1257;73489;-52
2023/10/31 03:04:59;;;;;;;18.80;8.50;;;;;;;11.56;100.00;100731.26;108531;1256;67248;-52
2023/10/31 03:07:27;;;;;;;15.50;9.30;;;;;;;11.58;100.00;100733.69;108454;1266;71445;-52
2023/10/31 03:09:54;;;;;;;16.00;7.70;;;;;;;11.59;100.00;100727.33;108612;1258;58963;-52
2023/10/31 03:12:21;;;;;;;16.20;7.30;;;;;;;11.60;100.00;100729.27;108482;1257;62313;-52
2023/10/31 03:14:49;;;;;;;19.20;9.10;;;;;;;11.60;100.00;100731.78;108641;1257;72621;-52
2023/10/31 03:17:16;;;;;;;13.50;8.20;;;;;;;11.60;100.00;100725.50;108602;1257;65869;-52
2023/10/31 03:19:44;;;;;;;17.90;9.10;;;;;;;11.60;100.00;100725.50;108614;1259;70060;-52
2023/10/31 03:22:11;;;;;;;13.00;8.20;;;;;;;11.59;100.00;100727.35;108559;1257;59046;-52
2023/10/31 03:24:38;;;;;;;16.90;9.60;;;;;;;11.57;100.00;100727.95;108505;1258;58797;-52
2023/10/31 03:27:06;;;;;;;13.70;7.70;;;;;;;11.54;100.00;100725.54;108679;1257;73495;-52
2023/10/31 03:29:33;;;;;;;18.10;6.90;;;;;;;11.52;100.00;100729.59;108559;1259;65962;-52
2023/10/31 03:32:01;;;;;;;15.00;7.50;;;;;;;11.50;100.00;100729.45;105277;1259;73598;-50
2023/10/31 03:34:28;;;;;;;11.90;6.30;;;;;;;11.48;100.00;100732.79;104182;1265;61767;-51
2023/10/31 03:36:56;;;;;;;12.00;6.50;;;;;;;11.47;100.00;100734.29;105487;1259;59979;-51
2023/10/31 03:39:24;;;;;;;16.30;7.70;;;;;;;11.46;100.00;100735.38;104406;1264;73529;-49
2023/10/31 03:41:52;;;;;;;11.50;7.30;;;;;;;11.45;100.00;100733.98;104299;1260;68148;-50
2023/10/31 03:44:21;;;;;;;12.90;7.90;;;;;;;11.44;100.00;100734.20;104384;1258;71822;-49
2023/10/31 03:46:49;;;;;;;16.30;8.00;;;;;;;11.43;100.00;100732.60;104475;1262;60133;-49
2023/10/31 03:49:16;;;;;;;17.50;9.50;;;;;;;11.43;100.00;100732.80;104265;1265;59350;-51
2023/10/31 03:51:45;;;;;;;16.60;8.20;;;;;;;11.42;100.00;100736.23;104499;1260;73119;-51
2023/10/31 03:54:13;;;;;;;18.40;7.90;;;;;;;11.41;100.00;100732.30;104456;1263;65687;-51
2023/10/31 03:56:42;;;;;;;13.20;7.90;;;;;;;11.39;100.00;100730.95;104339;1260;72718;-49
2023/10/31 03:59:10;;;;;;;11.50;7.70;;;;;;;11.37;100.00;100725.08;104378;1260;59724;-50
2023/10/31 04:01:37;;;;;;;21.20;9.40;;;;;;;11.37;100.00;100719.35;104624;1264;60031;-50
2023/10/31 04:04:05;;;;;;;17.00;8.50;;;;;;;11.35;100.00;100714.90;104444;1265;73295;-50
2023/10/31 04:06:32;;;;;;;14.10;8.00;;;;;;;11.34;100.00;100713.34;104526;1259;66272;-50
2023/10/31 04:09:00;;;;;;;15.00;6.60;;;;;;;11.33;100.00;100708.52;104288;1263;73315;-49
2023/10/31 04:11:27;;;;;;;11.50;6.30;;;;;;;11.33;100.00;100711.56;104325;1263;61725;-52
2023/10/31 04:13:54;;;;;;;12.20;6.30;;;;;;;11.34;100.00;100712.27;104627;1262;59637;-52
2023/10/31 04:16:22;;;;;;;16.70;7.30;;;;;;;11.33;100.00;100710.30;104853;1258;71873;-49
2023/10/31 04:18:49;;;;;;;17.00;8.00;;;;;;;11.34;100.00;100705.05;104229;1259;65819;-50
2023/10/31 04:21:17;;;;;;;16.70;7.80;;;;;;;11.35;100.00;100700.18;104281;1258;73196;-48
2023/10/31 04:23:44;;;;;;;15.00;7.40;;;;;;;11.35;100.00;100702.87;104351;1261;60679;-50
2023/10/31 04:26:11;;;;;;;15.80;8.60;;;;;;;11.34;100.00;100701.64;104289;1265;59755;-52
2023/10/31 04:28:39;;;;;;;16.90;8.20;;;;;;;11.34;100.00;100699.31;104433;1262;71897;-51
2023/10/31 04:31:06;;;;;;;13.70;8.80;;;;;;;11.33;100.00;100697.91;104482;1259;65666;-50
2023/10/31 04:33:33;;;;;;;16.00;7.90;;;;;;;11.32;100.00;100696.52;104391;1257;71442;-51
2023/10/31 04:36:02;;;;;;;12.20;7.70;;;;;;;11.30;100.00;100698.38;104340;1264;62184;-50
2023/10/31 04:38:29;;;;;;;12.00;6.50;;;;;;;11.29;100.00;100699.16;104037;1260;60743;-52
2023/10/31 04:40:56;;;;;;;12.60;7.70;;;;;;;11.29;100.00;100700.78;104512;1259;73283;-51
2023/10/31 04:43:24;;;;;;;12.50;6.60;;;;;;;11.29;100.00;100706.33;104306;1258;67518;-51
2023/10/31 04:45:51;;;;;;;12.60;6.80;;;;;;;11.30;100.00;100710.62;104635;1257;71245;-52
2023/10/31 04:48:18;;;;;;;13.40;6.60;;;;;;;11.31;100.00;100713.08;104285;1259;61049;-49
2023/10/31 04:50:46;;;;;;;15.00;7.10;;;;;;;11.33;100.00;100715.35;104371;1264;59626;-50
2023/10/31 04:53:13;;;;;;;15.80;6.80;;;;;;;11.34;100.00;100718.02;104509;1258;71816;-50
2023/10/31 04:55:40;;;;;;;14.10;8.40;;;;;;;11.36;100.00;100715.27;104237;1260;66267;-52
2023/10/31 04:58:08;;;;;;;16.40;8.20;;;;;;;11.37;100.00;100709.46;104549;1260;71484;-51
2023/10/31 05:00:35;;;;;;;16.80;9.50;;;;;;;11.38;100.00;100708.17;104320;1261;59720;-51
2023/10/31 05:03:03;;;;;;;18.50;8.90;;;;;;;11.38;100.00;100711.58;104354;1257;60093;-50
2023/10/31 05:05:30;;;;;;;14.60;7.80;;;;;;;11.39;100.00;100712.99;104222;1263;73623;-50
2023/10/31 05:07:58;;;;;;;14.30;6.90;;;;;;;11.40;100.00;100712.60;104435;1262;65512;-51
2023/10/31 05:10:25;;;;;;;13.70;7.90;;;;;;;11.41;100.00;100711.48;106238;1257;73147;-52
2023/10/31 05:12:53;;;;;;;15.60;8.40;;;;;;;11.41;100.00;100708.05;104523;1262;61668;-50
2023/10/31 05:15:21;;;;;;;12.10;6.90;;;;;;;11.42;100.00;100708.38;104995;1263;59623;-52
2023/10/31 05:17:48;;;;;;;17.70;7.60;;;;;;;11.43;100.00;100703.83;104260;1258;72060;-52
2023/10/31 05:20:16;;;;;;;20.00;8.00;;;;;;;11.46;100.00;100706.09;105133;1264;66706;-52
2023/10/31 05:22:43;;;;;;;17.60;7.80;;;;;;;11.49;100.00;100711.91;104405;1260;71493;-52
2023/10/31 05:25:11;;;;;;;15.10;9.10;;;;;;;11.51;100.00;100715.79;104472;1260;59622;-51
2023/10/31 05:27:39;;;;;;;16.30;7.50;;;;;;;11.53;100.00;100713.73;104452;1259;60159;-52
2023/10/31 05:30:06;;;;;;;14.40;8.20;;;;;;;11.55;100.00;100717.27;104398;1259;73511;-50
2023/10/31 05:32:34;;;;;;;16.70;9.00;;;;;;;11.56;100.00;100720.42;104390;1265;66751;-52
2023/10/31 05:35:02;;;;;;;16.80;8.40;;;;;;;11.58;100.00;100725.04;104372;1263;73092;-52
2023/10/31 05:37:29;;;;;;;16.20;8.50;;;;;;;11.58;100.00;100723.23;108419;1258;58882;-53
2023/10/31 05:39:57;;;;;;;13.50;6.70;;;;;;;11.59;100.00;100722.84;108426;1257;59834;-50
2023/10/31 05:42:25;;;;;;;18.50;8.70;;;;;;;11.60;100.00;100729.30;107250;1257;73109;-52
2023/10/31 05:44:53;;;;;;;15.60;7.90;;;;;;;11.60;100.00;100729.82;104386;1258;67082;-49
2023/10/31 05:47:20;;;;;;;11.00;8.00;;;;;;;11.60;100.00;100732.13;108602;1260;72384;-51
2023/10/31 05:49:48;;;;;;;14.90;7.60;;;;;;;11.61;100.00;100730.32;106568;1263;60428;-50
2023/10/31 05:52:15;;;;;;;17.50;6.70;;;;;;;11.62;100.00;100731.01;104334;1262;60718;-49
2023/10/31 05:54:42;;;;;;;12.50;6.40;;;;;;;11.63;100.00;100730.06;104652;1257;74330;-50
2023/10/31 05:57:10;;;;;;;15.50;6.80;;;;;;;11.65;100.00;100728.39;104620;1262;65763;-50
2023/10/31 05:59:37;;;;;;;11.50;5.90;;;;;;;11.66;100.00;100725.46;104439;1263;73175;-51
2023/10/31 06:02:05;;;;;;;20.40;7.70;;;;;;;11.69;100.00;100724.98;104371;1258;60765;-51
2023/10/31 06:04:32;;;;;;;14.30;6.70;;;;;;;11.72;100.00;100731.17;104382;1259;60515;-49
2023/10/31 06:06:59;;;;;;;15.90;7.20;;;;;;;11.75;100.00;100730.89;104537;1264;73846;-51
2023/10/31 06:09:27;;;;;;;16.40;8.00;;;;;;;11.79;100.00;100727.70;104500;1266;66021;-51
2023/10/31 06:11:54;;;;;;;14.90;7.70;;;;;;;11.83;100.00;100727.02;104472;1264;73642;-52
2023/10/31 06:14:21;;;;;;;16.80;8.50;;;;;;;11.86;100.00;100731.55;104457;1262;60415;-50
2023/10/31 06:16:49;;;;;;;17.40;8.00;;;;;;;11.89;100.00;100739.20;104404;1266;61319;-51
2023/10/31 06:19:16;;;;;;;14.80;7.20;;;;;;;11.91;100.00;100737.84;108572;1262;72611;-51
2023/10/31 06:21:44;;;;;;;16.90;5.90;;;;;;;11.93;100.00;100737.04;108642;1258;67231;-51
2023/10/31 06:24:11;;;;;;;17.60;7.40;;;;;;;11.95;100.00;100741.10;108699;1258;71134;-51
2023/10/31 06:26:39;;;;;;;14.80;7.40;;;;;;;11.98;100.00;100745.52;108551;1257;60520;-52
2023/10/31 06:29:07;;;;;;;13.90;6.70;;;;;;;11.99;100.00;100748.54;108591;1259;59016;-52
2023/10/31 06:31:54;;;;;;;10.40;5.30;;;;;;;12.01;100.00;100760.13;108600;1257;75071;-52
2023/10/31 06:34:22;;;;;;;12.10;5.60;;;;;;;12.04;100.00;100750.47;108604;1263;67060;-51
2023/10/31 06:36:49;;;;;;;10.70;5.50;;;;;;;12.09;100.00;100750.98;108519;1257;72772;-51
2023/10/31 06:39:16;;;;;;;11.50;5.60;;;;;;;12.16;100.00;100754.36;108605;1261;61073;-51
2023/10/31 06:41:44;;;;;;;14.20;6.80;;;;;;;12.22;100.00;100759.16;105788;1263;60774;-49
2023/10/31 06:44:11;;;;;;;9.60;6.50;;;;;;;12.27;100.00;100762.90;104416;1263;73823;-48
2023/10/31 06:46:39;;;;;;;13.70;6.90;;;;;;;12.32;100.00;100766.65;104517;1261;67775;-50
2023/10/31 06:49:06;;;;;;;14.40;7.00;;;;;;;12.37;100.00;100768.08;104319;1257;71535;-48
2023/10/31 06:51:34;;;;;;;14.20;7.00;;;;;;;12.42;100.00;100772.58;104351;1262;60419;-51
2023/10/31 06:54:01;;;;;;;15.40;6.80;;;;;;;12.45;100.00;100776.39;104374;1265;60791;-50
2023/10/31 06:56:28;;;;;;;12.30;6.90;;;;;;;12.49;100.00;100777.89;104423;1266;73816;-51
2023/10/31 06:58:56;;;;;;;14.00;6.90;;;;;;;12.52;100.00;100775.77;104339;1262;65888;-49
2023/10/31 07:01:23;;;;;;;13.10;5.30;;;;;;;12.55;100.00;100773.86;103918;1264;73154;-50
2023/10/31 07:03:51;;;;;;;16.50;5.20;;;;;;;12.57;100.00;100773.24;108402;1257;60600;-50
2023/10/31 07:06:18;;;;;;;15.50;5.20;;;;;;;12.60;100.00;100773.09;104360;1265;61989;-50
2023/10/31 07:08:46;;;;;;;12.60;5.10;;;;;;;12.64;100.00;100778.00;104377;1263;72015;-49
2023/10/31 07:11:13;;;;;;;13.10;5.40;;;;;;;12.68;100.00;100773.28;104190;1258;66473;-50
2023/10/31 07:13:41;;;;;;;8.80;4.70;;;;;;;12.74;100.00;100771.42;108592;1258;73733;-52
2023/10/31 07:16:08;;;;;;;14.20;5.90;;;;;;;12.81;100.00;100782.49;108615;1257;58852;-52
2023/10/31 07:18:36;;;;;;;12.50;4.50;;;;;;;12.88;100.00;100785.63;106321;1257;60432;-50
2023/10/31 07:21:04;;;;;;;9.90;5.30;;;;;;;12.95;100.00;100782.48;104592;1262;73794;-51
2023/10/31 07:23:31;;;;;;;17.30;4.80;;;;;;;13.01;100.00;100779.50;104658;1257;67458;-49
2023/10/31 07:26:01;;;;;;;10.60;4.80;;;;;;;13.11;100.00;100781.60;104404;1263;72643;-51
2023/10/31 07:28:28;;;;;;;8.80;3.60;;;;;;;13.21;100.00;100786.97;104352;1263;62934;-49
2023/10/31 07:30:56;;;;;;;11.70;4.90;;;;;;;13.30;100.00;100791.45;104696;1265;60474;-50
2023/10/31 07:33:24;;;;;;;10.80;4.00;;;;;;;13.37;100.00;100794.93;104491;1262;72653;-49
2023/10/31 07:35:51;;;;;;;7.10;3.70;;;;;;;13.43;100.00;100790.88;104402;1263;67910;-50
2023/10/31 07:38:19;;;;;;;14.80;4.30;;;;;;;13.48;100.00;100797.69;104514;1267;71389;-50
2023/10/31 07:40:47;;;;;;;7.80;3.50;;;;;;;13.51;100.00;100799.73;105167;1261;61630;-50
2023/10/31 07:43:15;;;;;;;12.60;3.80;;;;;;;13.53;100.00;100805.19;104966;1257;60493;-49
2023/10/31 07:45:43;;;;;;;7.50;2.70;;;;;;;13.54;100.00;100806.61;104667;1264;73960;-49
2023/10/31 07:48:10;;;;;;;6.60;2.30;;;;;;;13.57;100.00;100804.34;104222;1264;67197;-50
2023/10/31 07:50:37;;;;;;;7.90;3.00;;;;;;;13.60;100.00;100807.80;104457;1258;72703;-51
2023/10/31 07:53:05;;;;;;;7.90;3.20;;;;;;;13.68;100.00;100816.11;104370;1260;60426;-50
2023/10/31 07:55:33;;;;;;;7.60;2.30;;;;;;;13.72;100.00;100816.64;104348;1257;60534;-49
2023/10/31 07:58:00;;;;;;;4.00;2.30;;;;;;;13.78;100.00;100814.76;104323;1258;73931;-51
2023/10/31 08:00:27;;;;;;;9.50;2.60;;;;;;;13.84;100.00;100816.67;104495;1260;66211;-50
2023/10/31 08:02:55;;;;;;;7.50;2.20;;;;;;;13.90;100.00;100814.39;104329;1263;74802;-50
2023/10/31 08:05:23;;;;;;;5.10;1.70;;;;;;;13.99;100.00;100815.08;104471;1262;61799;-49
2023/10/31 08:07:51;;;;;;;7.20;2.50;;;;;;;14.09;100.00;100816.61;104714;1261;60560;-51
2023/10/31 08:10:18;;;;;;;6.40;1.70;;;;;;;14.18;100.00;100819.42;104973;1263;74346;-50
2023/10/31 08:12:46;;;;;;;7.10;1.80;;;;;;;14.28;100.00;100824.21;104384;1263;67117;-50
2023/10/31 08:15:15;;;;;;;4.60;1.90;;;;;;;14.39;100.00;100825.15;104192;1264;71461;-50
2023/10/31 08:17:42;;;;;;;8.00;2.00;;;;;;;14.49;100.00;100826.69;104603;1257;60626;-50
2023/10/31 08:20:11;;;;;;;7.70;1.50;;;;;;;14.57;100.00;100828.42;104394;1262;60965;-50
2023/10/31 08:22:39;;;;;;;4.40;1.20;;;;;;;14.65;100.00;100830.58;105004;1260;72683;-50
2023/10/31 08:25:07;;;;;;;8.70;2.00;;;;;;;14.74;100.00;100832.70;104392;1259;65810;-51
2023/10/31 08:27:34;;;;;;;7.70;2.10;;;;;;;14.81;100.00;100838.66;105778;1257;72699;-51
2023/10/31 08:30:02;;;;;;;5.40;1.90;;;;;;;14.88;100.00;100837.61;104397;1263;60493;-51
2023/10/31 08:32:30;;;;;;;4.70;2.00;;;;;;;14.97;100.00;100840.79;105049;1263;60570;-52
2023/10/31 08:34:57;;;;;;;8.70;2.10;;;;;;;15.05;100.00;100845.05;104922;1257;72708;-50
2023/10/31 08:37:25;;;;;;;5.30;1.20;;;;;;;15.13;100.00;100851.55;105050;1258;65967;-51
2023/10/31 08:39:52;;;;;;;5.80;1.50;;;;;;;15.21;100.00;100854.40;104394;1259;71227;-50
2023/10/31 08:42:20;;;;;;;3.00;1.00;;;;;;;15.28;100.00;100858.02;104486;1264;60563;-50
2023/10/31 08:44:47;;;;;;;10.40;1.70;;;;;;;15.36;100.00;100860.16;104501;1262;60633;-51
2023/10/31 08:47:14;;;;;;;3.20;1.00;;;;;;;15.44;100.00;100861.20;104437;1258;75976;-51
2023/10/31 08:49:42;;;;;;;7.80;1.00;;;;;;;15.52;100.00;100866.05;104404;1263;65544;-52
2023/10/31 08:52:09;;;;;;;3.90;1.00;;;;;;;15.61;100.00;100872.45;104441;1262;72748;-52
2023/10/31 08:54:37;;;;;;;2.70;1.10;;;;;;;15.71;100.00;100876.27;104472;1260;60549;-51
2023/10/31 08:57:04;;;;;;;4.50;1.80;;;;;;;15.83;100.00;100882.91;104397;1263;60514;-52
2023/10/31 08:59:32;;;;;;;4.60;1.80;;;;;;;15.94;100.00;100883.05;104397;1262;76404;-51
2023/10/31 09:01:59;;;;;;;5.90;1.50;;;;;;;16.04;100.00;100884.88;104332;1257;67973;-52
2023/10/31 09:04:26;;;;;;;7.80;1.80;;;;;;;16.14;100.00;100888.48;104336;1262;71463;-49
2023/10/31 09:06:54;;;;;;;5.90;1.30;;;;;;;16.23;100.00;100883.64;104279;1264;60448;-51
2023/10/31 09:09:21;;;;;;;8.20;1.40;;;;;;;16.35;100.00;100890.10;104456;1257;60614;-50
2023/10/31 09:11:48;;;;;;;5.30;1.60;;;;;;;16.45;100.00;100894.98;104440;1264;72664;-49
2023/10/31 09:14:16;;;;;;;2.60;1.00;;;;;;;16.55;100.00;100902.55;104344;1258;68021;-50
2023/10/31 09:16:43;;;;;;;2.40;0.90;;;;;;;16.65;100.00;100906.60;104267;1260;70157;-51
2023/10/31 09:19:11;;;;;;;4.10;0.90;;;;;;;16.74;100.00;100911.52;104280;1263;60632;-51
2023/10/31 09:21:38;;;;;;;2.80;0.70;;;;;;;16.83;100.00;100919.02;104494;1262;60360;-51
2023/10/31 09:24:07;;;;;;;3.80;0.90;;;;;;;16.91;100.00;100923.61;104409;1261;73828;-50
2023/10/31 09:26:34;;;;;;;5.90;1.60;;;;;;;17.00;100.00;100923.99;108666;1259;64788;-50
2023/10/31 09:29:02;;;;;;;4.90;0.80;;;;;;;17.11;100.00;100932.27;108545;1257;72723;-51
2023/10/31 09:31:29;;;;;;;3.10;1.00;;;;;;;17.22;100.00;100937.08;108676;1257;58912;-52
2023/10/31 09:33:56;;;;;;;2.50;0.70;;;;;;;17.33;100.00;100942.63;108664;1256;60070;-51
2023/10/31 09:36:24;;;;;;;6.10;0.80;;;;;;;17.44;100.00;100949.08;108695;1257;74899;-51
2023/10/31 09:38:51;;;;;;;2.20;0.70;;;;;;;17.53;100.00;100953.08;107963;1257;66934;-51
2023/10/31 09:41:18;;;;;;;3.60;0.70;;;;;;;17.62;100.00;100956.92;104516;1261;73249;-50
2023/10/31 09:43:46;;;;;;;2.20;0.70;;;;;;;17.72;100.00;100964.52;104320;1259;60584;-53
2023/10/31 09:46:13;;;;;;;3.30;1.10;;;;;;;17.82;100.00;100972.86;104726;1257;62835;-50
2023/10/31 09:48:41;;;;;;;3.10;1.10;;;;;;;17.91;100.00;100981.36;105340;1263;72617;-51
2023/10/31 09:51:12;;;;;;;1.70;0.90;;;;;;;18.00;100.00;100991.36;104497;1259;68026;-50
2023/10/31 09:53:39;;;;;;;5.30;0.90;;;;;;;18.09;100.00;100996.61;104468;1261;72649;-50
2023/10/31 09:56:07;;;;;;;4.90;0.70;;;;;;;18.18;100.00;101003.15;104520;1258;60517;-51
2023/10/31 09:58:35;;;;;;;6.00;0.70;;;;;;;18.27;100.00;101010.30;107166;1261;58809;-51
2023/10/31 10:01:02;;;;;;;2.30;0.60;;;;;;;18.34;100.00;101017.64;105233;1261;73890;-48
2023/10/31 10:03:30;;;;;;;3.90;0.70;;;;;;;18.43;100.00;101024.56;104367;1260;65864;-51
2023/10/31 10:05:58;;;;;;;1.60;0.70;;;;;;;18.51;100.00;101035.48;104266;1261;71967;-50
2023/10/31 10:08:25;;;;;;;1.90;0.90;;;;;;;18.58;100.00;101041.45;104253;1261;60557;-51
2023/10/31 10:10:52;;;;;;;1.30;0.80;;;;;;;18.65;100.00;101052.46;104282;1260;60404;-50
2023/10/31 10:13:20;;;;;;;2.40;0.60;;;;;;;18.71;100.00;101064.65;104475;1263;73674;-50
2023/10/31 10:15:54;;;;;;;2.00;0.70;;;;;;;18.78;100.00;101068.80;104934;1263;66792;-52
2023/10/31 10:18:29;;;;;;;4.20;0.80;;;;;;;18.85;100.00;101084.36;107999;1258;71480;-51
2023/10/31 10:20:58;;;;;;;7.20;0.80;;;;;;;18.93;100.00;101094.05;104739;1261;60535;-52
2023/10/31 10:23:25;;;;;;;1.80;0.60;;;;;;;19.00;100.00;101093.23;105862;1261;60510;-53
2023/10/31 10:25:54;;;;;;;1.10;0.60;;;;;;;19.06;100.00;101102.66;104553;1260;72671;-52
2023/10/31 10:28:22;;;;;;;3.80;0.70;;;;;;;19.12;100.00;101109.97;104872;1259;67405;-52
2023/10/31 10:30:50;;;;;;;1.40;0.60;;;;;;;19.16;100.00;101118.80;106039;1257;71462;-52
2023/10/31 10:33:18;;;;;;;3.40;0.60;;;;;;;19.20;100.00;101123.84;104461;1257;60485;-52
2023/10/31 10:35:45;;;;;;;3.40;0.70;;;;;;;19.22;100.00;101127.36;104319;1263;60429;-51
2023/10/31 10:38:17;;;;;;;4.80;0.90;;;;;;;19.24;100.00;101133.91;104362;1261;73927;-52
2023/10/31 10:40:46;;;;;;;3.60;0.80;;;;;;;19.26;100.00;101143.80;104426;1263;67683;-50
2023/10/31 10:43:25;;;;;;;7.50;0.90;;;;;;;19.28;100.00;101138.41;104877;1263;72753;-52
2023/10/31 10:45:56;;;;;;;2.20;0.70;;;;;;;19.32;100.00;101155.12;104375;1259;60564;-52
2023/10/31 10:48:25;;;;;;;5.20;0.70;;;;;;;19.35;100.00;101154.56;108250;1257;60578;-50
2023/10/31 10:51:05;;;;;;;2.20;0.70;;;;;;;19.38;100.00;101154.21;104437;1263;74404;-51
2023/10/31 10:53:50;;;;;;;1.30;0.60;;;;;;;19.41;100.00;101169.45;105042;1259;72597;-51
2023/10/31 10:56:37;;;;;;;1.40;0.60;;;;;;;19.44;100.00;101179.46;104727;1259;71584;-51
2023/10/31 10:59:15;;;;;;;2.40;0.70;;;;;;;19.48;100.00;101187.45;108523;1263;60045;-50
2023/10/31 11:01:42;;;;;;;3.00;0.80;;;;;;;19.50;100.00;101177.85;108504;1259;59084;-52
2023/10/31 11:04:09;;;;;;;1.90;0.80;;;;;;;19.51;100.00;101172.65;108601;1259;72674;-52
2023/10/31 11:06:37;;;;;;;1.20;0.70;;;;;;;19.54;100.00;101169.08;108569;1261;68139;-52
2023/10/31 11:09:06;;;;;;;2.00;0.80;;;;;;;19.54;100.00;101167.39;108464;1259;71415;-51